EGDR 192350Z 15005KT 9999 FEW018 SCT140 12/11 Q1019 TEMPO SCT012 RMK BLU TEMPO GRN EGDR 192322Z 15004KT CAVOK 12/10 Q1019 TEMPO SCT012 RMK BLU TEMPO GRN EGDR 192250Z 15005KT 9999 FEW035 SCT120 12/11 Q1020 TEMPO SCT012 RMK BLU TEMPO GRN EGDR 192232Z 15005KT 9999 FEW012 SCT120 12/11 Q1020 TEMPO SCT012 RMK BLU TEMPO GRN EGDR 192150Z 16005KT 9999 FEW012 SCT100 12/11 Q1020 TEMPO SCT012 RMK BLU TEMPO GRN EGDR 192124Z 16004KT 9999 FEW012 BKN100 12/11 Q1020 TEMPO SCT012 RMK BLU TEMPO GRN EGDR 192050Z 15004KT 9999 FEW012 SCT100 13/11 Q1020 TEMPO SCT012 RMK BLU TEMPO GRN EGDR 192023Z 17005KT 9999 FEW012 SCT130 BKN150 13/11 Q1020 TEMPO SCT012 RMK BLU TEMPO GRN EGDR 191950Z 18004KT 9999 FEW012 SCT160 BKN180 13/11 Q1020 TEMPO SCT012 RMK BLU TEMPO GRN EGDR 191922Z 19006KT 9999 FEW012 SCT160 13/11 Q1020 TEMPO SCT012 RMK BLU TEMPO GRN EGDR 191850Z 22005KT 9999 FEW012 BKN160 13/11 Q1020 TEMPO SCT012 RMK BLU TEMPO GRN EGDR 191826Z 22004KT 9999 FEW012 BKN160 13/11 Q1020 NOSIG RMK BLU BLU EGDR 191750Z 21006KT 9999 FEW012 BKN160 14/11 Q1020 NOSIG RMK BLU BLU EGDR 191719Z 22007KT 9999 FEW012 BKN140 14/10 Q1020 NOSIG RMK BLU BLU EGDR 191650Z 21007KT 9999 FEW012 BKN140 14/11 Q1020 NOSIG RMK BLU BLU EGDR 191621Z 21007KT 9999 FEW014 SCT140 BKN300 14/11 Q1020 NOSIG RMK BLU BLU EGDR 191550Z 23003KT 9999 FEW014 SCT140 BKN300 14/11 Q1020 NOSIG RMK BLU BLU EGDR 191524Z 23010KT 9999 FEW014 SCT140 BKN300 14/11 Q1020 NOSIG RMK BLU BLU EGDR 191450Z 21010KT 9999 FEW014 SCT140 15/11 Q1020 NOSIG RMK BLU BLU EGDR 191423Z 20010G20KT 9999 FEW014 SCT140 15/11 Q1020 NOSIG RMK BLU BLU EGDR 191350Z 22009KT 9999 FEW014 SCT030 15/12 Q1020 NOSIG RMK BLU BLU EGDR 191326Z 21010KT 9999 FEW014 SCT030 14/10 Q1020 NOSIG RMK BLU BLU EGDR 191250Z 20011KT 9999 FEW012 SCT030 14/11 Q1020 NOSIG RMK BLU BLU EGDR 191224Z 20010KT 9999 FEW012 SCT030 15/12 Q1020 NOSIG RMK BLU BLU EGDR 191150Z 19011KT 9999 FEW010 SCT030 15/11 Q1020 NOSIG RMK BLU BLU EGDR 191121Z 19010KT 9999 FEW014 SCT300 14/10 Q1020 NOSIG RMK BLU BLU EGDR 191050Z 22010KT 9999 FEW014 14/10 Q1020 NOSIG RMK BLU BLU EGDR 191025Z 21007KT 9999 FEW014 15/10 Q1020 NOSIG RMK BLU BLU EGDR 190950Z 21007KT 9999 FEW014 14/10 Q1019 NOSIG RMK BLU BLU EGDR 190924Z 23009KT 9999 FEW010 14/10 Q1019 TEMPO FEW012 SCT022 RMK BLU TEMPO WHT EGDR 190850Z 23009KT 9999 FEW010 SCT030 14/11 Q1019 TEMPO FEW012 SCT022 RMK BLU TEMPO WHT EGDR 190824Z 24009KT 9999 FEW010 SCT030 13/11 Q1019 TEMPO FEW012 SCT022 RMK BLU TEMPO WHT EGDR 190750Z 24007KT 9999 FEW010 SCT030 13/11 Q1019 TEMPO 4000 BR FEW006 SCT009 RMK BLU TEMPO GRN EGDR 190723Z 24006KT 9999 FEW010 SCT030 13/12 Q1019 TEMPO 4000 BR FEW006 SCT009 RMK BLU TEMPO GRN EGDR 190650Z 25005KT 9999 FEW010 BKN030 12/12 Q1018 TEMPO 4000 BR FEW006 SCT009 RMK BLU TEMPO GRN EGDR 190623Z 24005KT 9999 FEW012 BKN030 12/11 Q1018 TEMPO 4000 BR FEW006 SCT009 RMK BLU TEMPO GRN EGDR 190550Z 22002G22KT 9999 FEW012 BKN050 BKN080 11/11 Q1018 TEMPO 4000 BR FEW006 SCT009 RMK BLU TEMPO GRN EGDR 190521Z 28005KT 9999 FEW012 BKN050 BKN100 11/11 Q1017 TEMPO 4000 BR FEW006 SCT009 RMK BLU TEMPO GRN EGDR 190450Z 24005KT 9000 BR SCT012 SCT025 BKN100 11/11 Q1017 NOSIG RMK GRN GRN EGDR 190350Z AUTO 22003KT 9999 FEW014/// BKN070/// 11/11 Q1017 EGDR 190250Z AUTO 22003KT 9000 BR BKN100/// 11/11 Q1017 EGDR 190150Z AUTO 24002KT 9999 BKN150/// 11/10 Q1016 EGDR 190050Z AUTO 24003KT 9000 OVC180/// 11/10 Q1016 EGDR 182350Z AUTO 25004KT 9999 BKN170/// 12/11 Q1016 EGDR 182250Z AUTO 25006KT 9999 BKN180/// 12/11 Q1015 EGDR 182223Z 25007KT CAVOK 12/11 Q1015 TEMPO 7000 BR SCT008 RMK BLU TEMPO GRN EGDR 182150Z 24006KT CAVOK 12/11 Q1015 TEMPO 4000 BR SCT004 RMK BLU TEMPO YLO2 EGDR 182126Z 24006KT 9999 FEW007 BKN180 12/12 Q1015 TEMPO 4000 BR SCT004 RMK BLU TEMPO YLO2 EGDR 182050Z 19010KT 4000 BR SCT003 SCT020 BKN190 13/13 Q1015 TEMPO 3500 RADZ SCT002 RMK YLO2 TEMPO AMB EGDR 182023Z 18010KT 2500 BR BKN003 SCT005 OVC030 13/13 Q1015 TEMPO 3500 RADZ SCT002 RMK YLO2 TEMPO AMB EGDR 181950Z 18011KT 7000 BR FEW003 SCT004 BKN040 13/13 Q1015 TEMPO 3500 RADZ SCT002 RMK YLO2 TEMPO AMB EGDR 181920Z 17009KT 7000 BR FEW003 SCT004 BKN040 13/13 Q1015 TEMPO 3500 RADZ SCT002 RMK YLO2 TEMPO AMB EGDR 181850Z 16009KT 7000 BR FEW003 SCT004 13/13 Q1014 TEMPO 3500 RADZ SCT002 RMK YLO2 TEMPO AMB EGDR 181822Z 16009KT 6000 -RA FEW002 BKN004 OVC020 13/12 Q1015 TEMPO 3500 RADZ SCT002 RMK YLO2 TEMPO AMB EGDR 181750Z 16011KT 5000 BR FEW002 SCT003 OVC020 13/12 Q1015 TEMPO 3500 RADZ SCT002 RMK YLO2 TEMPO AMB EGDR 181722Z 17011KT 5000 -RA FEW002 SCT003 OVC020 13/12 Q1015 TEMPO 3500 RADZ SCT002 RMK YLO2 TEMPO AMB EGDR 181650Z 13006KT 2000 RA FEW006 SCT008 BKN020 12/12 Q1015 TEMPO 3500 RADZ SCT002 RMK YLO2 TEMPO AMB EGDR 181621Z 14006KT 2800 RA FEW008 SCT010 BKN020 12/12 Q1015 TEMPO 3500 RADZ SCT002 RMK YLO1 TEMPO AMB EGDR 181550Z 16009KT 2500 RA SCT010 BKN020 OVC040 13/12 Q1015 TEMPO 3500 RADZ SCT002 RMK YLO1 TEMPO AMB EGDR 181520Z 18016G28KT 2500 RA SCT010 BKN020 OVC040 13/11 Q1015 TEMPO 4000 RA SCT004 RMK YLO1 TEMPO YLO2 EGDR 181450Z 17015G26KT 4500 -RA FEW008 SCT010 BKN020 12/11 Q1015 TEMPO 4000 RA SCT004 RMK GRN TEMPO YLO2 EGDR 181425Z 16013KT 7000 HZ FEW008 SCT010 BKN020 13/11 Q1015 TEMPO 4000 RA SCT004 RMK GRN TEMPO YLO2 EGDR 181350Z 15015KT 9000 HZ FEW006 SCT008 BKN014 14/12 Q1016 TEMPO 4000 RA SCT004 RMK GRN TEMPO YLO2 EGDR 181323Z 15013KT 9000 HZ FEW004 SCT008 BKN014 15/12 Q1016 TEMPO 4000 RA SCT004 RMK GRN TEMPO YLO2 EGDR 181250Z 14015G26KT 9000 HZ FEW004 SCT008 OVC014 15/13 Q1016 TEMPO 4000 RA SCT004 RMK GRN TEMPO YLO2 EGDR 181223Z 15015G26KT 9000 HZ FEW004 SCT007 OVC015 15/13 Q1016 TEMPO 4000 RA SCT004 RMK GRN TEMPO YLO2

METAR Messwerte "CULDROSE (NAVY)" EGDR

Zurück zur Übersicht

Ortsname
Ländercode / m ü. NN
Zeit Temperatur Taupunkt Rel.
Luftfeuchte
Luftdruck:
Altimeter
NN
Station
Wind in Beaufort
(Knoten)
Sichtweite
(Meter)
Wolken
(Meter über Grund)
Wettererscheinung
CULDROSE (NAVY)
GB 74
Fr 20.05. 01:50121194 %1019
1019
1010
SSO 2 (5)>= 10000Wolkig (4300)
Leicht bewölkt (550)
 
CULDROSE (NAVY)
GB 74
Fr 20.05. 01:22121088 %1019
1019
1010
SSO 2 (4)>= 10000Nicht signifikant 
CULDROSE (NAVY)
GB 74
Fr 20.05. 00:50121194 %1020
1020
1011
SSO 2 (5)>= 10000Wolkig (3700)
Leicht bewölkt (1100)
 
CULDROSE (NAVY)
GB 74
Fr 20.05. 00:32121194 %1020
1020
1011
SSO 2 (5)>= 10000Wolkig (3700)
Leicht bewölkt (370)
 
CULDROSE (NAVY)
GB 74
Do 19.05. 23:50121194 %1020
1020
1011
SSO 2 (5)>= 10000Wolkig (3000)
Leicht bewölkt (370)
 
CULDROSE (NAVY)
GB 74
Do 19.05. 23:24121194 %1020
1020
1011
SSO 2 (4)>= 10000Stark bewölkt (3000)
Leicht bewölkt (370)
 
CULDROSE (NAVY)
GB 74
Do 19.05. 22:50131188 %1020
1020
1011
SSO 2 (4)>= 10000Wolkig (3000)
Leicht bewölkt (370)
 
CULDROSE (NAVY)
GB 74
Do 19.05. 22:23131188 %1020
1020
1011
S 2 (5)>= 10000Stark bewölkt (4600)
Wolkig (4000)
Leicht bewölkt (370)
 
CULDROSE (NAVY)
GB 74
Do 19.05. 21:50131188 %1020
1020
1011
S 2 (4)>= 10000Stark bewölkt (5500)
Wolkig (4900)
Leicht bewölkt (370)
 
CULDROSE (NAVY)
GB 74
Do 19.05. 21:22131188 %1020
1020
1011
S 2 (6)>= 10000Wolkig (4900)
Leicht bewölkt (370)
 
CULDROSE (NAVY)
GB 74
Do 19.05. 20:50131188 %1020
1020
1011
SW 2 (5)>= 10000Stark bewölkt (4900)
Leicht bewölkt (370)
 
CULDROSE (NAVY)
GB 74
Do 19.05. 20:26131188 %1020
1020
1011
SW 2 (4)>= 10000Stark bewölkt (4900)
Leicht bewölkt (370)
 
CULDROSE (NAVY)
GB 74
Do 19.05. 19:50141182 %1020
1020
1011
SSW 2 (6)>= 10000Stark bewölkt (4900)
Leicht bewölkt (370)
 
CULDROSE (NAVY)
GB 74
Do 19.05. 19:19141077 %1020
1020
1011
SW 3 (7)>= 10000Stark bewölkt (4300)
Leicht bewölkt (370)
 
CULDROSE (NAVY)
GB 74
Do 19.05. 18:50141182 %1020
1020
1011
SSW 3 (7)>= 10000Stark bewölkt (4300)
Leicht bewölkt (370)
 
CULDROSE (NAVY)
GB 74
Do 19.05. 18:21141182 %1020
1020
1011
SSW 3 (7)>= 10000Stark bewölkt (9100)
Wolkig (4300)
Leicht bewölkt (430)
 
CULDROSE (NAVY)
GB 74
Do 19.05. 17:50141182 %1020
1020
1011
SW 2 (3)>= 10000Stark bewölkt (9100)
Wolkig (4300)
Leicht bewölkt (430)
 
CULDROSE (NAVY)
GB 74
Do 19.05. 17:24141182 %1020
1020
1011
SW 3 (10)>= 10000Stark bewölkt (9100)
Wolkig (4300)
Leicht bewölkt (430)
 
CULDROSE (NAVY)
GB 74
Do 19.05. 16:50151177 %1020
1020
1011
SSW 3 (10)>= 10000Wolkig (4300)
Leicht bewölkt (430)
 
CULDROSE (NAVY)
GB 74
Do 19.05. 16:23151177 %1020
1020
1011
SSW 3 (10) - 5 (20)>= 10000Wolkig (4300)
Leicht bewölkt (430)
 
CULDROSE (NAVY)
GB 74
Do 19.05. 15:50151282 %1020
1020
1011
SW 3 (9)>= 10000Wolkig (910)
Leicht bewölkt (430)
 
CULDROSE (NAVY)
GB 74
Do 19.05. 15:26141077 %1020
1020
1011
SSW 3 (10)>= 10000Wolkig (910)
Leicht bewölkt (430)
 
CULDROSE (NAVY)
GB 74
Do 19.05. 14:50141182 %1020
1020
1011
SSW 4 (11)>= 10000Wolkig (910)
Leicht bewölkt (370)
 
CULDROSE (NAVY)
GB 74
Do 19.05. 14:24151282 %1020
1020
1011
SSW 3 (10)>= 10000Wolkig (910)
Leicht bewölkt (370)
 
CULDROSE (NAVY)
GB 74
Do 19.05. 13:50151177 %1020
1020
1011
S 4 (11)>= 10000Wolkig (910)
Leicht bewölkt (300)
 
CULDROSE (NAVY)
GB 74
Do 19.05. 13:21141077 %1020
1020
1011
S 3 (10)>= 10000Wolkig (9100)
Leicht bewölkt (430)
 
CULDROSE (NAVY)
GB 74
Do 19.05. 12:50141077 %1020
1020
1011
SW 3 (10)>= 10000Leicht bewölkt (430) 
CULDROSE (NAVY)
GB 74
Do 19.05. 12:25151072 %1020
1020
1011
SSW 3 (7)>= 10000Leicht bewölkt (430) 
CULDROSE (NAVY)
GB 74
Do 19.05. 11:50141077 %1019
1019
1010
SSW 3 (7)>= 10000Leicht bewölkt (430) 
CULDROSE (NAVY)
GB 74
Do 19.05. 11:24141077 %1019
1019
1010
SW 3 (9)>= 10000Leicht bewölkt (300) 
CULDROSE (NAVY)
GB 74
Do 19.05. 10:50141182 %1019
1019
1010
SW 3 (9)>= 10000Wolkig (910)
Leicht bewölkt (300)
 
CULDROSE (NAVY)
GB 74
Do 19.05. 10:24131188 %1019
1019
1010
WSW 3 (9)>= 10000Wolkig (910)
Leicht bewölkt (300)
 
CULDROSE (NAVY)
GB 74
Do 19.05. 09:50131188 %1019
1019
1010
WSW 3 (7)>= 10000
Bald zeitweise: 4000
Wolkig (910)
Leicht bewölkt (300)
 Bald zeitweise: Nebeldunst
CULDROSE (NAVY)
GB 74
Do 19.05. 09:23131294 %1019
1019
1010
WSW 2 (6)>= 10000
Bald zeitweise: 4000
Wolkig (910)
Leicht bewölkt (300)
 Bald zeitweise: Nebeldunst
CULDROSE (NAVY)
GB 74
Do 19.05. 08:501212100 %1018
1018
1009
WSW 2 (5)>= 10000
Bald zeitweise: 4000
Stark bewölkt (910)
Leicht bewölkt (300)
 Bald zeitweise: Nebeldunst
CULDROSE (NAVY)
GB 74
Do 19.05. 08:23121194 %1018
1018
1009
WSW 2 (5)>= 10000
Bald zeitweise: 4000
Stark bewölkt (910)
Leicht bewölkt (370)
 Bald zeitweise: Nebeldunst
CULDROSE (NAVY)
GB 74
Do 19.05. 07:501111100 %1018
1018
1009
SW 1 (2) - 6 (22)>= 10000
Bald zeitweise: 4000
Stark bewölkt (2400)
Stark bewölkt (1500)
Leicht bewölkt (370)
 Bald zeitweise: Nebeldunst
CULDROSE (NAVY)
GB 74
Do 19.05. 07:211111100 %1017
1017
1008
W 2 (5)>= 10000
Bald zeitweise: 4000
Stark bewölkt (3000)
Stark bewölkt (1500)
Leicht bewölkt (370)
 Bald zeitweise: Nebeldunst
CULDROSE (NAVY)
GB 74
Do 19.05. 06:501111100 %1017
1017
1008
WSW 2 (5)9000Stark bewölkt (3000)
Wolkig (760)
Wolkig (370)
Nebeldunst
CULDROSE (NAVY)
GB 74
Do 19.05. 05:501111100 %1017
1017
1008
SW 2 (3)>= 10000Stark bewölkt (2100)
Leicht bewölkt (430)
 
CULDROSE (NAVY)
GB 74
Do 19.05. 04:501111100 %1017
1017
1008
SW 2 (3)9000Stark bewölkt (3000)Nebeldunst
CULDROSE (NAVY)
GB 74
Do 19.05. 03:50111094 %1016
1016
1007
WSW 1 (2)>= 10000Stark bewölkt (4600) 
CULDROSE (NAVY)
GB 74
Do 19.05. 02:50111094 %1016
1016
1007
WSW 2 (3)9000Bedeckt (5500) 
CULDROSE (NAVY)
GB 74
Do 19.05. 01:50121194 %1016
1016
1007
WSW 2 (4)>= 10000Stark bewölkt (5200) 
CULDROSE (NAVY)
GB 74
Do 19.05. 00:50121194 %1015
1015
1006
WSW 2 (6)>= 10000Stark bewölkt (5500) 
CULDROSE (NAVY)
GB 74
Do 19.05. 00:23121194 %1015
1015
1006
WSW 3 (7)>= 10000
Bald zeitweise: 7000
Nicht signifikant Bald zeitweise: Nebeldunst
CULDROSE (NAVY)
GB 74
Mi 18.05. 23:50121194 %1015
1015
1006
WSW 2 (6)>= 10000
Bald zeitweise: 4000
Nicht signifikant Bald zeitweise: Nebeldunst
CULDROSE (NAVY)
GB 74
Mi 18.05. 23:261212100 %1015
1015
1006
WSW 2 (6)>= 10000
Bald zeitweise: 4000
Stark bewölkt (5500)
Leicht bewölkt (210)
 Bald zeitweise: Nebeldunst
CULDROSE (NAVY)
GB 74
Mi 18.05. 22:501313100 %1015
1015
1006
S 3 (10)4000
Bald zeitweise: 3500
Stark bewölkt (5800)
Wolkig (610)
Wolkig (91)
Nebeldunst
Bald zeitweise: Regen/Nieselregen
CULDROSE (NAVY)
GB 74
Mi 18.05. 22:231313100 %1015
1015
1006
S 3 (10)2500
Bald zeitweise: 3500
Bedeckt (910)
Wolkig (150)
Stark bewölkt (91)
Nebeldunst
Bald zeitweise: Regen/Nieselregen
CULDROSE (NAVY)
GB 74
Mi 18.05. 21:501313100 %1015
1015
1006
S 4 (11)7000
Bald zeitweise: 3500
Stark bewölkt (1200)
Wolkig (120)
Leicht bewölkt (91)
Nebeldunst
Bald zeitweise: Regen/Nieselregen
CULDROSE (NAVY)
GB 74
Mi 18.05. 21:201313100 %1015
1015
1006
S 3 (9)7000
Bald zeitweise: 3500
Stark bewölkt (1200)
Wolkig (120)
Leicht bewölkt (91)
Nebeldunst
Bald zeitweise: Regen/Nieselregen
CULDROSE (NAVY)
GB 74
Mi 18.05. 20:501313100 %1014
1014
1005
SSO 3 (9)7000
Bald zeitweise: 3500
Wolkig (120)
Leicht bewölkt (91)
Nebeldunst
Bald zeitweise: Regen/Nieselregen
CULDROSE (NAVY)
GB 74
Mi 18.05. 20:22131294 %1015
1015
1006
SSO 3 (9)6000
Bald zeitweise: 3500
Bedeckt (610)
Stark bewölkt (120)
Leicht bewölkt (61)
Regen (schwach)
Bald zeitweise: Regen/Nieselregen
CULDROSE (NAVY)
GB 74
Mi 18.05. 19:50131294 %1015
1015
1006
SSO 4 (11)5000
Bald zeitweise: 3500
Bedeckt (610)
Wolkig (91)
Leicht bewölkt (61)
Nebeldunst
Bald zeitweise: Regen/Nieselregen
CULDROSE (NAVY)
GB 74
Mi 18.05. 19:22131294 %1015
1015
1006
S 4 (11)5000
Bald zeitweise: 3500
Bedeckt (610)
Wolkig (91)
Leicht bewölkt (61)
Regen (schwach)
Bald zeitweise: Regen/Nieselregen
CULDROSE (NAVY)
GB 74
Mi 18.05. 18:501212100 %1015
1015
1006
SO 2 (6)2000
Bald zeitweise: 3500
Stark bewölkt (610)
Wolkig (240)
Leicht bewölkt (180)
Regen
Bald zeitweise: Regen/Nieselregen
CULDROSE (NAVY)
GB 74
Mi 18.05. 18:211212100 %1015
1015
1006
SO 2 (6)2800
Bald zeitweise: 3500
Stark bewölkt (610)
Wolkig (300)
Leicht bewölkt (240)
Regen
Bald zeitweise: Regen/Nieselregen
CULDROSE (NAVY)
GB 74
Mi 18.05. 17:50131294 %1015
1015
1006
SSO 3 (9)2500
Bald zeitweise: 3500
Bedeckt (1200)
Stark bewölkt (610)
Wolkig (300)
Regen
Bald zeitweise: Regen/Nieselregen
CULDROSE (NAVY)
GB 74
Mi 18.05. 17:20131188 %1015
1015
1006
S 5 (16) - 7 (28)2500
Bald zeitweise: 4000
Bedeckt (1200)
Stark bewölkt (610)
Wolkig (300)
Regen
CULDROSE (NAVY)
GB 74
Mi 18.05. 16:50121194 %1015
1015
1006
S 4 (15) - 6 (26)4500
Bald zeitweise: 4000
Stark bewölkt (610)
Wolkig (300)
Leicht bewölkt (240)
Regen (schwach)
Bald zeitweise: Regen
CULDROSE (NAVY)
GB 74
Mi 18.05. 16:25131188 %1015
1015
1006
SSO 4 (13)7000
Bald zeitweise: 4000
Stark bewölkt (610)
Wolkig (300)
Leicht bewölkt (240)
Dunst
Bald zeitweise: Regen
CULDROSE (NAVY)
GB 74
Mi 18.05. 15:50141288 %1016
1016
1007
SSO 4 (15)9000
Bald zeitweise: 4000
Stark bewölkt (430)
Wolkig (240)
Leicht bewölkt (180)
Dunst
Bald zeitweise: Regen
CULDROSE (NAVY)
GB 74
Mi 18.05. 15:23151282 %1016
1016
1007
SSO 4 (13)9000
Bald zeitweise: 4000
Stark bewölkt (430)
Wolkig (240)
Leicht bewölkt (120)
Dunst
Bald zeitweise: Regen
CULDROSE (NAVY)
GB 74
Mi 18.05. 14:50151388 %1016
1016
1007
SO 4 (15) - 6 (26)9000
Bald zeitweise: 4000
Bedeckt (430)
Wolkig (240)
Leicht bewölkt (120)
Dunst
Bald zeitweise: Regen
CULDROSE (NAVY)
GB 74
Mi 18.05. 14:23151388 %1016
1016
1007
SSO 4 (15) - 6 (26)9000
Bald zeitweise: 4000
Bedeckt (460)
Wolkig (210)
Leicht bewölkt (120)
Dunst
Bald zeitweise: Regen

Altimeter: Einstellung am Altimeter (Höhenmesser), die Höhe 0 muss auf diesen Luftdruckwert zeigen, damit das Gerät die Stationshöhe richtig anzeigt.

NN: Luftdruck reduziert auf "Normal Null", auf Meereshöhe, dieser von der Temperatur abhängige Wert wird bisweilen unkorrekt einfach als "Luftdruck" bezeichnet. Eigentlich nur eine fiktive Größe, die es erlaubt, Stationen auf unterschiedlichen Höhen miteinander zu vergleichen.

Station: Realer Luftdruck an der Station.